METAR|ÜBERSETZT|TAF
EDHK 011320Z 16007KT CAVOK 16/10 Q1009
Login|Impressum|Kontakt



Presse

Pressemitteilungen
Artikel aus der Presse
Bildmaterial